Time;durP1;ratioP1;P1;durP2;ratioP2;P2;SDS_P1;SDS_P2;PMS_P1;PMS_P2;Temp;Humidity;BMP_temperature;BMP_pressure;BME280_temperature;BME280_humidity;BME280_pressure;Samples;Min_cycle;Max_cycle;Signal;HPM_P1;HPM_P2
2024/03/27 00:00:07;;;;;;;4.07;2.00;;;11.80;99.90;;;;;;4961428;28;20085;-87
2024/03/27 00:02:36;;;;;;;3.22;2.35;;;11.70;99.90;;;;;;4978793;28;20019;-86
2024/03/27 00:05:03;;;;;;;2.75;2.28;;;11.70;99.90;;;;;;4961513;28;20030;-86
2024/03/27 00:07:28;;;;;;;3.78;2.13;;;11.70;99.90;;;;;;4961465;28;20026;-87
2024/03/27 00:09:54;;;;;;;3.50;2.38;;;11.70;99.90;;;;;;4977409;28;20031;-85
2024/03/27 00:12:20;;;;;;;4.57;2.72;;;11.70;99.90;;;;;;4961898;28;20126;-86
2024/03/27 00:14:46;;;;;;;4.38;2.25;;;11.70;99.90;;;;;;4946149;28;20041;-86
2024/03/27 00:17:11;;;;;;;6.95;2.58;;;11.70;99.90;;;;;;4979594;28;20062;-86
2024/03/27 00:19:37;;;;;;;3.42;2.58;;;11.70;99.90;;;;;;4962986;28;20484;-86
2024/03/27 00:22:03;;;;;;;4.88;2.20;;;11.70;99.90;;;;;;4967932;28;20030;-87
2024/03/27 00:24:31;;;;;;;3.50;2.50;;;11.70;99.90;;;;;;4998892;28;20011;-83
2024/03/27 00:26:57;;;;;;;5.47;2.60;;;11.70;99.90;;;;;;4985473;28;20083;-86
2024/03/27 00:29:23;;;;;;;3.30;2.20;;;11.70;99.90;;;;;;5001398;28;20027;-85
2024/03/27 00:31:49;;;;;;;3.53;2.40;;;11.70;99.90;;;;;;4968204;28;20026;-85
2024/03/27 00:34:16;;;;;;;4.15;2.63;;;11.70;99.90;;;;;;4985072;28;20475;-86
2024/03/27 00:36:41;;;;;;;3.40;2.40;;;11.70;99.90;;;;;;4978398;28;20027;-85
2024/03/27 00:39:07;;;;;;;2.72;2.17;;;11.70;99.90;;;;;;4976955;28;20526;-86
2024/03/27 00:41:33;;;;;;;3.35;2.50;;;11.70;99.90;;;;;;4976689;28;20375;-86
2024/03/27 00:43:58;;;;;;;4.35;2.30;;;11.70;99.90;;;;;;4978034;28;20049;-86
2024/03/27 00:46:24;;;;;;;4.88;2.50;;;11.70;99.90;;;;;;4961594;28;20033;-86
2024/03/27 00:48:50;;;;;;;5.18;2.60;;;11.70;99.90;;;;;;4961655;28;20031;-86
2024/03/27 00:51:16;;;;;;;3.75;2.45;;;11.60;99.90;;;;;;4977280;28;20027;-86
2024/03/27 00:53:41;;;;;;;3.72;2.67;;;11.60;99.90;;;;;;4960076;28;20395;-86
2024/03/27 00:56:07;;;;;;;3.13;2.28;;;11.70;99.90;;;;;;4977916;28;20046;-87
2024/03/27 00:58:33;;;;;;;4.45;2.50;;;11.60;99.90;;;;;;4979061;28;20117;-86
2024/03/27 01:00:59;;;;;;;4.30;2.35;;;11.60;99.90;;;;;;4979505;28;20026;-85
2024/03/27 01:03:25;;;;;;;3.58;2.70;;;11.60;99.90;;;;;;4979592;28;20084;-86
2024/03/27 01:05:50;;;;;;;3.50;2.60;;;11.60;99.90;;;;;;4996752;28;20121;-86
2024/03/27 01:08:16;;;;;;;3.00;2.53;;;11.60;99.90;;;;;;4997000;28;20117;-85
2024/03/27 01:10:44;;;;;;;3.17;2.22;;;11.50;99.90;;;;;;4979159;28;20028;-86
2024/03/27 01:13:11;;;;;;;5.05;3.00;;;11.50;99.90;;;;;;4996958;28;20046;-86
2024/03/27 01:15:37;;;;;;;3.58;2.70;;;11.50;99.90;;;;;;4996641;28;20100;-87
2024/03/27 01:18:04;;;;;;;4.18;2.70;;;11.50;99.90;;;;;;4996841;28;20023;-86
2024/03/27 01:20:31;;;;;;;3.80;2.67;;;11.50;99.90;;;;;;4997367;28;20034;-86
2024/03/27 01:22:57;;;;;;;3.28;2.40;;;11.40;99.90;;;;;;4979270;28;20126;-85
2024/03/27 01:25:22;;;;;;;4.28;2.78;;;11.40;99.90;;;;;;4962835;28;20117;-86
2024/03/27 01:27:48;;;;;;;3.53;2.75;;;11.30;99.90;;;;;;4979280;28;20125;-86
2024/03/27 01:30:14;;;;;;;4.35;2.50;;;11.30;99.90;;;;;;4979205;28;20030;-86
2024/03/27 01:32:40;;;;;;;3.10;2.55;;;11.30;99.90;;;;;;4979042;28;20352;-86
2024/03/27 01:35:06;;;;;;;3.67;2.40;;;11.20;99.90;;;;;;4962547;28;20125;-86
2024/03/27 01:37:31;;;;;;;3.83;2.85;;;11.20;99.90;;;;;;4979047;28;20129;-86
2024/03/27 01:39:57;;;;;;;4.40;2.80;;;11.10;99.90;;;;;;4946676;28;20519;-86
2024/03/27 01:42:23;;;;;;;4.35;2.88;;;11.10;99.90;;;;;;4946729;28;20030;-86
2024/03/27 01:44:48;;;;;;;5.28;3.03;;;11.10;99.90;;;;;;4946603;28;20030;-85
2024/03/27 01:47:14;;;;;;;3.25;2.90;;;11.10;99.90;;;;;;4996750;28;20035;-85
2024/03/27 01:49:43;;;;;;;4.65;3.10;;;11.10;99.90;;;;;;4947386;28;20027;-84
2024/03/27 01:52:11;;;;;;;3.20;2.80;;;11.10;99.90;;;;;;4979606;28;20038;-85
2024/03/27 01:54:39;;;;;;;3.65;2.88;;;11.00;99.90;;;;;;4997317;28;20058;-85
2024/03/27 01:57:13;;;;;;;3.78;2.65;;;11.00;99.90;;;;;;4987713;28;20082;-84
2024/03/27 01:59:42;;;;;;;5.43;2.88;;;11.00;99.90;;;;;;4971454;28;20014;-84
2024/03/27 02:02:10;;;;;;;4.00;2.78;;;10.90;99.90;;;;;;5002740;28;20125;-84
2024/03/27 02:04:36;;;;;;;3.70;2.80;;;10.90;99.90;;;;;;5002444;28;20090;-85
2024/03/27 02:07:04;;;;;;;3.70;2.95;;;10.90;99.90;;;;;;4970251;28;20034;-83
2024/03/27 02:09:35;;;;;;;4.57;2.78;;;10.90;99.90;;;;;;4979350;28;20022;-84
2024/03/27 02:12:11;;;;;;;3.63;2.63;;;10.90;99.90;;;;;;4979042;28;20114;-84
2024/03/27 02:14:37;;;;;;;4.90;3.20;;;10.90;99.90;;;;;;4996241;28;20031;-84
2024/03/27 02:17:03;;;;;;;4.70;2.70;;;11.00;99.90;;;;;;4979098;28;20033;-84
2024/03/27 02:19:28;;;;;;;3.85;2.70;;;11.00;99.90;;;;;;4978706;28;20524;-85
2024/03/27 02:21:55;;;;;;;3.03;2.30;;;10.90;99.90;;;;;;4978942;28;20478;-84
2024/03/27 02:24:31;;;;;;;3.22;2.42;;;10.90;99.90;;;;;;4995840;28;20057;-84
2024/03/27 02:26:58;;;;;;;2.72;2.38;;;10.90;99.90;;;;;;4978661;28;20023;-84
2024/03/27 02:29:24;;;;;;;3.45;2.90;;;10.90;99.90;;;;;;4978454;28;20058;-84
2024/03/27 02:31:50;;;;;;;3.50;2.88;;;10.90;99.90;;;;;;4978244;28;20027;-83
2024/03/27 02:34:15;;;;;;;3.83;2.65;;;10.90;99.90;;;;;;4977928;28;20038;-84
2024/03/27 02:36:41;;;;;;;3.90;2.92;;;10.80;99.90;;;;;;4977943;28;20030;-84
2024/03/27 02:39:07;;;;;;;3.47;2.25;;;10.80;99.90;;;;;;4978419;28;20022;-84
2024/03/27 02:41:34;;;;;;;3.92;2.88;;;10.80;99.90;;;;;;4995745;28;20077;-84
2024/03/27 02:43:59;;;;;;;4.00;2.55;;;10.80;99.90;;;;;;4995627;28;20019;-84
2024/03/27 02:46:25;;;;;;;5.03;2.72;;;10.80;99.90;;;;;;4978268;28;20030;-84
2024/03/27 02:48:51;;;;;;;6.05;3.15;;;10.80;99.90;;;;;;4978344;28;20089;-84
2024/03/27 02:51:17;;;;;;;3.75;3.03;;;10.70;99.90;;;;;;4962569;28;20439;-84
2024/03/27 02:53:43;;;;;;;3.85;2.20;;;10.70;99.90;;;;;;4979058;28;20019;-84
2024/03/27 02:56:08;;;;;;;3.28;2.55;;;10.70;99.90;;;;;;4979338;28;20466;-85
2024/03/27 02:58:36;;;;;;;4.18;2.80;;;10.70;99.90;;;;;;4964857;28;20023;-84
2024/03/27 03:01:02;;;;;;;4.50;2.28;;;10.80;99.90;;;;;;4964258;28;20121;-85
2024/03/27 03:03:28;;;;;;;2.25;2.00;;;10.80;99.90;;;;;;4978804;28;20128;-85
2024/03/27 03:05:55;;;;;;;3.25;2.35;;;10.70;99.90;;;;;;4979385;28;20482;-86
2024/03/27 03:08:21;;;;;;;4.68;2.40;;;10.70;99.90;;;;;;4963681;28;20098;-84
2024/03/27 03:10:51;;;;;;;4.57;2.58;;;10.80;99.90;;;;;;4964260;28;20109;-84
2024/03/27 03:13:16;;;;;;;3.00;2.30;;;10.70;99.90;;;;;;4997494;28;20022;-83
2024/03/27 03:15:42;;;;;;;3.40;2.83;;;10.70;99.90;;;;;;4996628;28;20045;-84
2024/03/27 03:18:08;;;;;;;3.88;2.30;;;10.70;99.90;;;;;;4997459;28;20030;-86
2024/03/27 03:20:33;;;;;;;4.75;2.40;;;10.70;99.90;;;;;;4962034;28;20030;-85
2024/03/27 03:22:59;;;;;;;3.85;2.53;;;10.70;99.90;;;;;;4978598;28;20382;-85
2024/03/27 03:25:24;;;;;;;5.70;2.63;;;10.80;99.90;;;;;;4946373;28;20034;-84
2024/03/27 03:27:50;;;;;;;3.17;2.40;;;10.70;99.90;;;;;;4978986;28;20057;-85
2024/03/27 03:30:16;;;;;;;4.25;2.60;;;10.70;99.90;;;;;;4978536;28;20018;-85
2024/03/27 03:32:41;;;;;;;3.45;2.53;;;10.80;99.90;;;;;;4984437;28;20046;-84
2024/03/27 03:35:07;;;;;;;4.47;2.17;;;10.80;99.90;;;;;;4969188;28;20031;-83
2024/03/27 03:37:36;;;;;;;5.07;2.85;;;10.80;99.90;;;;;;4999884;28;20025;-84
2024/03/27 03:40:03;;;;;;;4.13;2.25;;;10.80;99.90;;;;;;5003752;28;20467;-85
2024/03/27 03:42:28;;;;;;;3.65;2.63;;;10.80;99.90;;;;;;4984959;28;20033;-85
2024/03/27 03:44:54;;;;;;;3.30;2.28;;;10.80;99.90;;;;;;4987295;28;20031;-83
2024/03/27 03:47:22;;;;;;;3.25;2.40;;;10.80;99.90;;;;;;4969908;28;20463;-84
2024/03/27 03:49:48;;;;;;;4.00;2.47;;;10.80;99.90;;;;;;4964950;28;20125;-85
2024/03/27 03:52:14;;;;;;;3.08;2.20;;;10.90;99.90;;;;;;4962378;28;20030;-85
2024/03/27 03:54:42;;;;;;;4.55;3.00;;;10.90;99.90;;;;;;4961824;28;20467;-84
2024/03/27 03:57:08;;;;;;;4.05;2.33;;;10.90;99.90;;;;;;4961650;28;20054;-84
2024/03/27 03:59:36;;;;;;;3.92;2.42;;;10.90;99.90;;;;;;4961751;28;20042;-85
2024/03/27 04:02:02;;;;;;;3.72;2.30;;;10.90;99.90;;;;;;4978235;28;20034;-84
2024/03/27 04:04:28;;;;;;;3.92;2.53;;;10.90;99.90;;;;;;4994867;28;20030;-84
2024/03/27 04:06:53;;;;;;;2.97;2.40;;;10.90;99.90;;;;;;4977690;28;20043;-85
2024/03/27 04:09:22;;;;;;;5.05;2.80;;;10.90;99.90;;;;;;4961941;28;20034;-85
2024/03/27 04:11:50;;;;;;;3.45;2.63;;;10.80;99.90;;;;;;4978283;28;20030;-84
2024/03/27 04:14:16;;;;;;;5.65;2.65;;;10.80;99.90;;;;;;4977403;28;20363;-85
2024/03/27 04:16:41;;;;;;;3.65;2.60;;;10.80;99.90;;;;;;4994636;28;20033;-84
2024/03/27 04:19:07;;;;;;;4.03;2.55;;;10.80;99.90;;;;;;4977214;28;20022;-83
2024/03/27 04:21:33;;;;;;;5.05;2.50;;;10.90;99.90;;;;;;4976664;28;20054;-84
2024/03/27 04:24:02;;;;;;;2.90;2.47;;;10.80;99.90;;;;;;4976781;28;20022;-85
2024/03/27 04:26:28;;;;;;;4.90;2.70;;;10.80;99.90;;;;;;4994504;28;20102;-84
2024/03/27 04:28:53;;;;;;;4.18;2.20;;;10.80;99.90;;;;;;4944816;28;20113;-84
2024/03/27 04:31:22;;;;;;;3.72;2.58;;;10.80;99.90;;;;;;4961227;28;20038;-85
2024/03/27 04:33:48;;;;;;;3.42;2.50;;;10.80;99.90;;;;;;4980205;28;20084;-84
2024/03/27 04:36:13;;;;;;;2.60;2.20;;;10.90;99.90;;;;;;4997645;28;20042;-84
2024/03/27 04:38:40;;;;;;;3.15;2.50;;;10.90;99.90;;;;;;4980394;28;20097;-85
2024/03/27 04:41:09;;;;;;;4.38;2.55;;;10.90;99.90;;;;;;4948957;28;20031;-85
2024/03/27 04:43:37;;;;;;;3.53;2.40;;;10.90;99.90;;;;;;4980762;28;20466;-84
2024/03/27 04:46:04;;;;;;;4.53;2.33;;;10.90;99.90;;;;;;4980444;28;20037;-84
2024/03/27 04:48:33;;;;;;;6.22;2.55;;;10.90;99.90;;;;;;4964541;28;20117;-83
2024/03/27 04:50:59;;;;;;;6.38;2.60;;;10.90;99.90;;;;;;4964678;28;20463;-84
2024/03/27 04:53:24;;;;;;;3.28;2.25;;;11.00;99.90;;;;;;4948594;28;20034;-85
2024/03/27 04:55:57;;;;;;;4.80;2.33;;;11.00;99.90;;;;;;4964209;28;20045;-83
2024/03/27 04:58:22;;;;;;;4.68;2.33;;;11.00;99.90;;;;;;4964146;28;20061;-85
2024/03/27 05:00:48;;;;;;;3.85;2.15;;;11.00;99.90;;;;;;4981925;28;20030;-84
2024/03/27 05:03:14;;;;;;;4.47;2.50;;;11.00;99.90;;;;;;5001365;28;20040;-85
2024/03/27 05:05:45;;;;;;;4.50;2.90;;;11.00;99.90;;;;;;4987688;28;20006;-83
2024/03/27 05:08:13;;;;;;;2.38;2.17;;;11.00;99.90;;;;;;5003783;28;20085;-84
2024/03/27 05:10:39;;;;;;;3.88;2.38;;;11.00;99.90;;;;;;5003334;28;20014;-85
2024/03/27 05:13:05;;;;;;;4.95;2.25;;;11.00;99.90;;;;;;4972130;28;20121;-84
2024/03/27 05:15:34;;;;;;;2.67;1.90;;;11.00;99.90;;;;;;4964486;28;20026;-85
2024/03/27 05:18:02;;;;;;;2.17;1.70;;;11.00;99.90;;;;;;4963657;28;20442;-85
2024/03/27 05:20:30;;;;;;;3.28;2.22;;;11.00;99.90;;;;;;4964316;28;20109;-85
2024/03/27 05:22:56;;;;;;;2.40;1.73;;;11.00;99.90;;;;;;4947973;28;20026;-84
2024/03/27 05:25:23;;;;;;;2.65;1.90;;;11.10;99.90;;;;;;4980038;28;20038;-86
2024/03/27 05:27:48;;;;;;;1.95;1.58;;;11.00;99.90;;;;;;4980149;28;20030;-85
2024/03/27 05:30:15;;;;;;;2.92;1.80;;;11.10;99.90;;;;;;4979601;28;20089;-83
2024/03/27 05:32:40;;;;;;;1.77;1.40;;;11.10;99.90;;;;;;4979942;28;20026;-85
2024/03/27 05:35:13;;;;;;;2.38;1.92;;;11.10;99.90;;;;;;4947394;28;20049;-85
2024/03/27 05:37:39;;;;;;;2.58;1.83;;;11.10;99.90;;;;;;4963840;28;20027;-84
2024/03/27 05:40:05;;;;;;;3.20;2.20;;;11.10;99.90;;;;;;4979554;28;20030;-84
2024/03/27 05:42:31;;;;;;;2.72;1.80;;;11.10;99.90;;;;;;4997259;28;20046;-91
2024/03/27 05:44:57;;;;;;;2.25;1.73;;;11.10;99.90;;;;;;4980157;28;20034;-86
2024/03/27 05:47:25;;;;;;;3.20;1.92;;;11.10;99.90;;;;;;4963714;28;20027;-86
2024/03/27 05:49:51;;;;;;;1.80;1.70;;;11.10;99.90;;;;;;4979251;28;20437;-86
2024/03/27 05:52:17;;;;;;;2.95;1.80;;;11.20;99.90;;;;;;4963505;28;20023;-86
2024/03/27 05:54:42;;;;;;;6.80;2.03;;;11.20;99.90;;;;;;4963135;28;20038;-84
2024/03/27 05:57:08;;;;;;;2.45;1.80;;;11.20;99.90;;;;;;4978944;28;20046;-85
2024/03/27 05:59:34;;;;;;;3.10;1.80;;;11.20;99.90;;;;;;4979480;28;20026;-85
2024/03/27 06:01:59;;;;;;;2.70;1.70;;;11.20;99.90;;;;;;4996512;28;20038;-86
2024/03/27 06:04:25;;;;;;;2.15;1.95;;;11.20;99.90;;;;;;4978824;28;20179;-87
2024/03/27 06:06:51;;;;;;;2.05;1.85;;;11.20;99.90;;;;;;4979123;28;20085;-84
2024/03/27 06:09:17;;;;;;;2.38;2.05;;;11.20;99.90;;;;;;4947284;28;20031;-87
2024/03/27 06:11:43;;;;;;;2.42;2.00;;;11.30;99.90;;;;;;4978031;28;20501;-87
2024/03/27 06:14:09;;;;;;;2.20;2.00;;;11.30;99.90;;;;;;4978897;28;20049;-88
2024/03/27 06:16:34;;;;;;;2.92;1.90;;;11.30;99.90;;;;;;4979165;28;20136;-88
2024/03/27 06:19:09;;;;;;;3.15;2.00;;;11.30;99.90;;;;;;4963578;28;20034;-87
2024/03/27 06:21:34;;;;;;;2.13;1.92;;;11.30;99.90;;;;;;4964653;28;20438;-87
2024/03/27 06:24:03;;;;;;;1.70;1.60;;;11.40;99.90;;;;;;4979077;28;20022;-87
2024/03/27 06:26:31;;;;;;;2.03;1.60;;;11.40;99.90;;;;;;4962673;28;20121;-87
2024/03/27 06:28:56;;;;;;;1.67;1.58;;;11.40;99.90;;;;;;4978857;28;20026;-87
2024/03/27 06:31:25;;;;;;;1.60;1.50;;;11.40;99.90;;;;;;4979269;28;20030;-87
2024/03/27 06:33:51;;;;;;;2.10;1.80;;;11.40;99.90;;;;;;4980849;28;20022;-87
2024/03/27 06:36:17;;;;;;;2.50;2.30;;;11.40;99.90;;;;;;5000551;28;20062;-89
2024/03/27 06:38:43;;;;;;;2.58;2.38;;;11.40;99.90;;;;;;5002179;28;20022;-87
2024/03/27 06:41:11;;;;;;;4.57;2.72;;;11.40;99.90;;;;;;4986515;28;20086;-88
2024/03/27 06:43:46;;;;;;;3.35;3.03;;;11.40;99.90;;;;;;5019202;28;20049;-87
2024/03/27 06:46:12;;;;;;;3.30;2.95;;;11.30;99.90;;;;;;4995958;28;20041;-88
2024/03/27 06:48:44;;;;;;;4.13;3.53;;;11.30;99.90;;;;;;4990083;28;20023;-87
2024/03/27 06:51:19;;;;;;;4.95;4.28;;;11.30;99.90;;;;;;4979089;28;20034;-87
2024/03/27 06:53:45;;;;;;;3.78;3.22;;;11.30;99.90;;;;;;4981402;28;20038;-88
2024/03/27 06:56:14;;;;;;;4.55;4.00;;;11.20;99.90;;;;;;4978627;28;20045;-88
2024/03/27 06:58:42;;;;;;;4.95;4.05;;;11.20;99.90;;;;;;4979154;28;20061;-88
2024/03/27 07:01:08;;;;;;;6.15;4.32;;;11.20;99.90;;;;;;4979627;28;20088;-89
2024/03/27 07:03:34;;;;;;;5.68;4.72;;;11.10;99.90;;;;;;4981272;28;20448;-90
2024/03/27 07:06:03;;;;;;;5.95;5.35;;;11.10;99.90;;;;;;4980194;28;20429;-87
2024/03/27 07:08:32;;;;;;;5.43;4.93;;;11.10;99.90;;;;;;4996648;28;20104;-89
2024/03/27 07:11:04;;;;;;;6.57;5.88;;;11.10;99.90;;;;;;4996952;28;20045;-89
2024/03/27 07:13:33;;;;;;;6.65;5.95;;;11.20;99.90;;;;;;4995638;28;20101;-89
2024/03/27 07:15:59;;;;;;;6.88;5.95;;;11.10;99.90;;;;;;4962829;28;20039;-88
2024/03/27 07:18:26;;;;;;;6.15;5.55;;;11.10;99.90;;;;;;4978676;28;20034;-89
2024/03/27 07:21:01;;;;;;;7.22;6.22;;;11.10;99.90;;;;;;4978785;28;20029;-88
2024/03/27 07:23:27;;;;;;;6.47;5.78;;;11.10;99.90;;;;;;4979961;28;20470;-88
2024/03/27 07:25:56;;;;;;;6.72;5.97;;;11.10;99.90;;;;;;4963603;28;20030;-88
2024/03/27 07:28:26;;;;;;;7.90;6.07;;;11.10;99.90;;;;;;4979117;28;20037;-89
2024/03/27 07:30:58;;;;;;;7.43;6.72;;;11.10;99.90;;;;;;4963267;28;20041;-90
2024/03/27 07:33:24;;;;;;;8.27;7.40;;;11.00;99.90;;;;;;4979057;28;20029;-90
2024/03/27 07:36:03;;;;;;;;;;;;;;;;;;;;;
2024/03/27 07:38:29;;;;;;;10.65;9.02;;;10.90;99.90;;;;;;4993814;28;20501;-87
2024/03/27 07:40:55;;;;;;;11.18;10.02;;;10.90;99.90;;;;;;4979319;28;20055;-88
2024/03/27 07:43:21;;;;;;;12.45;11.20;;;10.80;99.90;;;;;;4978641;28;20121;-89
2024/03/27 07:45:49;;;;;;;13.98;11.45;;;10.80;99.90;;;;;;4996026;28;20077;-89
2024/03/27 07:48:17;;;;;;;13.00;11.60;;;10.80;99.90;;;;;;4980307;28;20019;-89
2024/03/27 07:50:45;;;;;;;14.25;12.23;;;10.80;99.90;;;;;;4979318;28;20037;-89
2024/03/27 07:53:14;;;;;;;13.43;12.02;;;10.80;99.90;;;;;;4978893;28;20046;-88
2024/03/27 07:55:42;;;;;;;13.15;11.73;;;10.70;99.90;;;;;;4979125;28;20442;-88
2024/03/27 07:58:08;;;;;;;12.15;10.85;;;10.70;99.90;;;;;;4978540;28;20057;-88
2024/03/27 08:00:37;;;;;;;12.20;10.73;;;10.70;99.90;;;;;;4979108;28;20022;-90
2024/03/27 08:03:05;;;;;;;13.15;11.50;;;10.70;99.90;;;;;;4962834;28;20042;-92
2024/03/27 08:05:36;;;;;;;11.73;10.63;;;10.70;99.90;;;;;;4979287;28;20466;-90
2024/03/27 08:08:02;;;;;;;12.13;10.85;;;10.70;99.90;;;;;;4996771;28;20090;-87
2024/03/27 08:10:30;;;;;;;11.75;10.45;;;10.80;99.90;;;;;;5005333;28;20006;-84
2024/03/27 08:12:55;;;;;;;11.95;10.75;;;10.70;99.90;;;;;;5005566;28;20018;-88
2024/03/27 08:15:21;;;;;;;11.73;10.52;;;10.70;99.90;;;;;;5005578;28;20087;-89
2024/03/27 08:17:47;;;;;;;11.15;9.95;;;10.70;99.90;;;;;;4989781;28;20026;-91
2024/03/27 08:20:22;;;;;;;12.05;10.75;;;10.80;99.90;;;;;;4985812;28;20058;-90
2024/03/27 08:22:50;;;;;;;13.10;11.70;;;10.70;99.90;;;;;;4983196;28;20049;-90
2024/03/27 08:25:16;;;;;;;12.32;10.63;;;10.70;99.90;;;;;;4967395;28;20041;-90
2024/03/27 08:27:44;;;;;;;12.18;10.85;;;10.70;99.90;;;;;;4982092;28;20030;-88
2024/03/27 08:30:13;;;;;;;14.55;11.73;;;10.70;99.90;;;;;;4950762;28;20026;-90
2024/03/27 08:32:39;;;;;;;12.73;10.95;;;10.70;99.90;;;;;;4966996;28;20068;-90
2024/03/27 08:35:05;;;;;;;12.77;11.10;;;10.70;99.90;;;;;;4982235;28;20104;-89
2024/03/27 08:37:34;;;;;;;12.55;11.15;;;10.70;99.90;;;;;;4967849;28;20030;-89
2024/03/27 08:39:59;;;;;;;12.68;11.38;;;10.70;99.90;;;;;;4982855;28;20027;-89
2024/03/27 08:42:25;;;;;;;14.32;11.25;;;10.70;99.90;;;;;;4984533;28;20029;-91
2024/03/27 08:44:53;;;;;;;11.48;10.30;;;10.70;99.90;;;;;;4986215;28;20149;-89
2024/03/27 08:47:19;;;;;;;13.85;11.65;;;10.80;99.90;;;;;;4985150;28;20026;-90
2024/03/27 08:49:45;;;;;;;13.18;11.80;;;10.80;99.90;;;;;;4986134;28;20037;-90
2024/03/27 08:52:11;;;;;;;12.90;11.60;;;10.90;99.90;;;;;;4991283;28;20030;-90
2024/03/27 08:54:37;;;;;;;13.32;11.93;;;10.90;99.90;;;;;;5009754;28;20447;-89
2024/03/27 08:57:02;;;;;;;13.02;11.43;;;10.90;99.90;;;;;;4996270;28;20144;-90
2024/03/27 08:59:28;;;;;;;12.60;11.40;;;11.00;99.90;;;;;;4999704;28;20046;-89
2024/03/27 09:01:54;;;;;;;12.98;11.68;;;11.00;99.90;;;;;;5020480;28;20049;-90
2024/03/27 09:04:23;;;;;;;14.82;12.65;;;11.00;99.90;;;;;;5019269;28;20030;-89
2024/03/27 09:06:48;;;;;;;12.98;11.68;;;11.00;99.90;;;;;;5002621;28;20007;-89
2024/03/27 09:09:14;;;;;;;12.38;11.07;;;11.00;99.90;;;;;;4987390;28;20050;-89
2024/03/27 09:11:40;;;;;;;14.13;12.48;;;11.10;99.90;;;;;;5003633;28;20027;-91
2024/03/27 09:14:06;;;;;;;12.05;10.85;;;11.10;99.90;;;;;;4997329;28;20102;-91
2024/03/27 09:16:32;;;;;;;11.48;10.32;;;11.20;99.90;;;;;;4990684;28;20035;-91
2024/03/27 09:19:01;;;;;;;12.73;11.43;;;11.20;99.90;;;;;;4985420;28;20037;-90
2024/03/27 09:21:29;;;;;;;12.18;10.90;;;11.20;99.90;;;;;;4984810;28;20037;-87
2024/03/27 09:23:58;;;;;;;11.88;10.60;;;11.30;99.90;;;;;;5000399;28;20026;-89
2024/03/27 09:26:24;;;;;;;12.50;10.90;;;11.30;99.90;;;;;;4981517;28;20029;-89
2024/03/27 09:28:49;;;;;;;12.95;11.48;;;11.30;99.90;;;;;;4981301;28;20018;-88
2024/03/27 09:31:15;;;;;;;11.70;10.50;;;11.40;99.90;;;;;;4981371;28;20475;-89
2024/03/27 09:33:41;;;;;;;12.10;10.90;;;11.40;99.90;;;;;;4982230;28;20026;-89
2024/03/27 09:36:12;;;;;;;11.98;10.77;;;11.40;99.90;;;;;;4984129;28;20046;-86
2024/03/27 09:38:38;;;;;;;11.65;10.30;;;11.40;99.90;;;;;;5003852;28;20027;-88
2024/03/27 09:41:04;;;;;;;11.90;10.70;;;11.40;99.90;;;;;;5004000;28;20015;-90
2024/03/27 09:43:33;;;;;;;12.20;10.85;;;11.40;99.90;;;;;;5003319;28;20108;-89
2024/03/27 09:45:58;;;;;;;14.07;10.98;;;11.40;99.90;;;;;;5003504;28;20078;-88
2024/03/27 09:48:27;;;;;;;11.75;9.88;;;11.40;99.90;;;;;;5003109;28;20045;-90
2024/03/27 09:50:55;;;;;;;11.82;10.63;;;11.50;99.90;;;;;;4993951;28;20030;-91
2024/03/27 09:53:21;;;;;;;11.27;9.23;;;11.50;99.90;;;;;;4989846;28;20415;-88
2024/03/27 09:55:50;;;;;;;10.40;9.27;;;11.50;99.90;;;;;;5004070;28;20042;-92
2024/03/27 09:58:17;;;;;;;9.43;7.72;;;11.50;99.90;;;;;;4977684;28;20054;-87
2024/03/27 10:00:43;;;;;;;8.48;7.57;;;11.50;99.90;;;;;;4976856;28;20026;-90
2024/03/27 10:03:09;;;;;;;8.27;7.47;;;11.50;99.90;;;;;;4977202;28;20041;-89
2024/03/27 10:05:36;;;;;;;8.32;7.25;;;11.50;99.90;;;;;;4976603;28;20030;-89
2024/03/27 10:08:03;;;;;;;7.85;7.03;;;11.50;99.90;;;;;;4976055;28;20042;-90
2024/03/27 10:10:32;;;;;;;9.57;7.80;;;11.50;99.90;;;;;;4960273;28;20386;-88
2024/03/27 10:12:58;;;;;;;9.10;7.60;;;11.60;99.90;;;;;;4976560;28;20019;-89
2024/03/27 10:15:34;;;;;;;8.25;7.28;;;11.60;99.90;;;;;;4976564;28;20052;-90
2024/03/27 10:18:03;;;;;;;8.80;7.40;;;11.60;99.90;;;;;;4976957;28;20027;-89
2024/03/27 10:20:32;;;;;;;9.02;5.93;;;11.60;99.90;;;;;;4976724;28;20053;-90
2024/03/27 10:22:58;;;;;;;7.03;6.18;;;11.50;99.90;;;;;;4976410;28;20111;-89
2024/03/27 10:25:27;;;;;;;7.72;5.40;;;11.60;99.90;;;;;;4960348;28;20054;-88
2024/03/27 10:27:53;;;;;;;6.50;5.35;;;11.60;99.90;;;;;;4961140;28;20030;-90
2024/03/27 10:30:21;;;;;;;7.47;5.28;;;11.60;99.90;;;;;;4975650;28;20089;-88
2024/03/27 10:32:47;;;;;;;7.30;4.72;;;11.50;99.90;;;;;;4976688;28;20034;-90
2024/03/27 10:35:12;;;;;;;6.55;5.32;;;11.50;99.90;;;;;;4976179;28;20041;-90
2024/03/27 10:37:49;;;;;;;;;;;;;;;;;;;;;
2024/03/27 10:40:21;;;;;;;6.15;4.85;;;11.50;99.90;;;;;;4977274;28;20059;-91
2024/03/27 10:42:54;;;;;;;5.88;4.63;;;11.50;99.90;;;;;;4977777;28;20463;-91
2024/03/27 10:45:20;;;;;;;5.93;4.85;;;11.50;99.90;;;;;;4976159;28;20038;-86
2024/03/27 10:47:46;;;;;;;6.78;4.90;;;11.50;99.90;;;;;;4977416;28;20034;-94
2024/03/27 10:50:18;;;;;;;8.32;5.07;;;11.50;99.90;;;;;;4977572;28;20035;-94
2024/03/27 10:52:45;;;;;;;6.15;5.00;;;11.50;99.90;;;;;;4978013;28;20023;-90
2024/03/27 10:55:11;;;;;;;7.40;4.88;;;11.50;99.90;;;;;;4975911;28;20035;-90
2024/03/27 10:57:37;;;;;;;7.35;4.53;;;11.60;99.90;;;;;;4975871;28;20059;-90
2024/03/27 11:00:05;;;;;;;7.53;4.60;;;11.50;99.90;;;;;;4976491;28;20057;-91
2024/03/27 11:02:34;;;;;;;6.07;4.55;;;11.60;99.90;;;;;;4976343;28;20112;-90
2024/03/27 11:05:06;;;;;;;6.38;4.80;;;11.60;99.90;;;;;;4960818;28;20027;-92
2024/03/27 11:07:33;;;;;;;7.50;5.05;;;11.60;99.90;;;;;;4978170;28;20039;-90
2024/03/27 11:10:01;;;;;;;6.15;4.95;;;11.60;99.90;;;;;;4979439;28;20018;-91
2024/03/27 11:12:34;;;;;;;5.45;4.35;;;11.50;99.90;;;;;;4979157;28;20082;-90
2024/03/27 11:15:09;;;;;;;7.05;4.78;;;11.50;99.90;;;;;;4998762;28;20046;-89
2024/03/27 11:17:36;;;;;;;5.63;4.50;;;11.50;99.90;;;;;;4983268;28;20053;-91
2024/03/27 11:20:04;;;;;;;6.55;4.18;;;11.50;99.90;;;;;;4999035;28;20019;-89
2024/03/27 11:22:30;;;;;;;6.95;4.50;;;11.50;99.90;;;;;;4978261;28;20027;-90
2024/03/27 11:25:09;;;;;;;7.22;4.60;;;11.50;99.90;;;;;;4979539;28;20030;-89
2024/03/27 11:27:39;;;;;;;6.30;4.13;;;11.60;99.90;;;;;;4977118;28;20027;-90
2024/03/27 11:30:19;;;;;;;5.80;4.30;;;11.60;99.90;;;;;;4978515;28;20113;-91
2024/03/27 11:32:47;;;;;;;6.78;4.25;;;11.60;99.90;;;;;;4976107;28;20023;-90
2024/03/27 11:35:17;;;;;;;6.07;4.57;;;11.70;99.90;;;;;;4977370;28;20069;-90
2024/03/27 11:37:46;;;;;;;6.70;4.40;;;11.70;99.90;;;;;;4975892;28;20034;-91
2024/03/27 11:40:13;;;;;;;5.18;4.20;;;11.70;99.90;;;;;;4976929;28;20038;-92
2024/03/27 11:42:41;;;;;;;5.45;4.40;;;11.70;99.90;;;;;;4979032;28;20422;-90
2024/03/27 11:45:11;;;;;;;5.13;4.32;;;11.70;99.90;;;;;;4981473;28;20038;-91
2024/03/27 11:47:47;;;;;;;5.90;4.50;;;11.60;99.90;;;;;;4983246;28;20098;-90
2024/03/27 11:50:15;;;;;;;6.07;4.60;;;11.60;99.90;;;;;;4980517;28;20034;-91
2024/03/27 11:52:44;;;;;;;5.07;3.88;;;11.50;99.90;;;;;;4979651;28;20101;-90
2024/03/27 11:55:10;;;;;;;5.53;4.35;;;11.50;99.90;;;;;;4980304;28;20038;-89
2024/03/27 11:57:42;;;;;;;5.45;4.50;;;11.50;99.90;;;;;;4978937;28;20372;-90
2024/03/27 12:00:11;;;;;;;4.85;3.67;;;11.60;99.90;;;;;;4978693;28;20122;-89
2024/03/27 12:02:37;;;;;;;4.95;4.00;;;11.60;99.90;;;;;;4979292;28;20026;-90
2024/03/27 12:05:04;;;;;;;6.15;3.85;;;11.60;99.90;;;;;;4978807;28;20031;-91
2024/03/27 12:07:37;;;;;;;5.07;4.03;;;11.60;99.90;;;;;;4978888;28;20125;-89
2024/03/27 12:10:07;;;;;;;5.05;3.97;;;11.70;99.90;;;;;;4978877;28;20086;-90
2024/03/27 12:12:32;;;;;;;4.60;4.03;;;11.70;99.90;;;;;;4979101;28;20015;-90
2024/03/27 12:14:58;;;;;;;4.90;3.65;;;11.70;99.90;;;;;;4979423;28;20030;-92
2024/03/27 12:17:33;;;;;;;4.13;3.45;;;11.70;99.90;;;;;;4978810;28;20452;-91
2024/03/27 12:20:05;;;;;;;4.38;3.72;;;11.70;99.90;;;;;;4980193;28;20491;-90
2024/03/27 12:22:33;;;;;;;4.30;3.70;;;11.70;99.90;;;;;;4978884;28;20019;-90
2024/03/27 12:25:01;;;;;;;4.97;3.78;;;11.80;99.90;;;;;;4978499;28;20023;-90
2024/03/27 12:27:31;;;;;;;3.75;3.33;;;11.80;99.90;;;;;;4979340;28;20037;-91
2024/03/27 12:29:57;;;;;;;6.00;3.53;;;11.80;99.90;;;;;;4978532;28;20034;-90
2024/03/27 12:32:29;;;;;;;4.68;3.30;;;11.80;99.90;;;;;;4978633;28;20023;-89
2024/03/27 12:34:56;;;;;;;4.20;3.33;;;11.80;99.90;;;;;;4979303;28;20494;-90
2024/03/27 12:37:25;;;;;;;5.35;3.50;;;11.80;99.90;;;;;;4979208;28;20480;-88
2024/03/27 12:39:55;;;;;;;4.22;3.55;;;11.80;99.90;;;;;;4966121;28;20027;-90
2024/03/27 12:42:23;;;;;;;5.45;3.53;;;11.80;99.90;;;;;;4979999;28;20026;-90
2024/03/27 12:44:49;;;;;;;5.65;3.83;;;11.80;99.90;;;;;;4979783;28;20030;-90